TimePDT,TemperatureF,Dew PointF,Humidity,Sea Level PressureIn,VisibilityMPH,Wind Direction,Wind SpeedMPH,Gust SpeedMPH,PrecipitationIn,Events,Conditions,WindDirDegrees,DateUTC
12:53 AM,53.1,48.9,86,30.02,10.0,NW,3.5,-,N/A,,Clear,310,2012-10-08 07:53:00
1:53 AM,51.1,48.0,89,30.02,10.0,WNW,6.9,-,N/A,,Clear,300,2012-10-08 08:53:00
2:53 AM,51.1,48.0,89,30.03,10.0,NW,4.6,-,N/A,,Clear,310,2012-10-08 09:53:00
3:53 AM,50.0,46.9,89,30.02,10.0,NW,3.5,-,N/A,,Clear,310,2012-10-08 10:53:00
4:53 AM,50.0,46.9,89,30.03,10.0,Calm,Calm,-,N/A,,Clear,0,2012-10-08 11:53:00
5:53 AM,48.9,46.0,90,30.02,10.0,NNW,3.5,-,N/A,,Clear,330,2012-10-08 12:53:00
6:53 AM,48.9,46.0,90,30.03,10.0,WNW,4.6,-,N/A,,Clear,300,2012-10-08 13:53:00
7:53 AM,50.0,46.9,89,30.04,10.0,NW,3.5,-,N/A,,Clear,310,2012-10-08 14:53:00
8:53 AM,55.9,48.9,77,30.05,10.0,Calm,Calm,-,N/A,,Clear,0,2012-10-08 15:53:00
9:53 AM,62.1,50.0,65,30.05,10.0,Variable,3.5,-,N/A,,Clear,0,2012-10-08 16:53:00
10:53 AM,64.9,48.9,56,30.05,10.0,Variable,3.5,-,N/A,,Clear,0,2012-10-08 17:53:00
11:53 AM,68.0,50.0,52,30.04,10.0,SW,8.1,-,N/A,,Clear,220,2012-10-08 18:53:00
12:53 PM,68.0,51.1,55,30.04,10.0,SSW,10.4,-,N/A,,Clear,210,2012-10-08 19:53:00
1:53 PM,68.0,51.1,55,30.03,10.0,WSW,10.4,16.1,N/A,,Clear,240,2012-10-08 20:53:00
2:53 PM,64.9,53.1,65,30.02,10.0,SW,9.2,18.4,N/A,,Clear,220,2012-10-08 21:53:00
3:53 PM,64.0,53.1,67,30.02,10.0,WSW,9.2,18.4,N/A,,Clear,250,2012-10-08 22:53:00
4:53 PM,64.9,53.1,65,30.02,10.0,SSW,6.9,-,N/A,,Clear,210,2012-10-08 23:53:00
5:53 PM,64.0,52.0,65,30.01,10.0,South,6.9,-,N/A,,Clear,170,2012-10-09 00:53:00
6:53 PM,59.0,53.1,81,30.01,10.0,Calm,Calm,-,N/A,,Clear,0,2012-10-09 01:53:00
7:53 PM,57.9,54.0,87,30.03,10.0,ESE,5.8,-,N/A,,Clear,120,2012-10-09 02:53:00
8:08 PM,57.2,55.4,94,30.03,10.0,East,4.6,-,N/A,,Scattered Clouds,80,2012-10-09 03:08:00
8:17 PM,59.0,55.4,88,30.03,10.0,East,5.8,-,N/A,,Mostly Cloudy,80,2012-10-09 03:17:00
8:53 PM,59.0,55.0,87,30.04,10.0,East,4.6,-,N/A,,Overcast,100,2012-10-09 03:53:00
9:53 PM,59.0,54.0,83,30.04,10.0,North,3.5,-,N/A,,Overcast,10,2012-10-09 04:53:00
10:53 PM,59.0,54.0,83,30.05,10.0,Calm,Calm,-,N/A,,Overcast,0,2012-10-09 05:53:00
11:53 PM,59.0,54.0,83,30.05,10.0,SE,4.6,-,N/A,,Overcast,140,2012-10-09 06:53:00